Destiny — ZCTE3 — position and weather

sailwx.info

Track history (hours):
 
Tides and Currents Weather Stations Pressure Air Temp Water Temp Dewpoint Dewpoint Depression Visibility Wind Speed Wind Dir Waves Ship Positions

Destiny

Last reported at 2016-Jul-01 10:21 UTC. Time now 2016-Jul-02 03:58 UTC.
Position N 40°43' E 014°28'.

Length 37 m; draft 2.4 m.

Type: Pleasure craft. MMSI: 319864000.

Date/timePositionNaut miles runAvg speedWind from/ knotsBaromVisibWave heightAir tempDewpointWater temp
2016-Jul-01 10:21N 40°43' E 014°28'0 0.0
2016-Jul-01 09:33N 40°43' E 014°28'0 0.0
2016-Jun-30 21:33N 40°43' E 014°28'0 0.0
2016-Jun-30 20:21N 40°43' E 014°28'0 0.0
2016-Jun-30 12:33N 40°43' E 014°28'0 0.0
2016-Jun-30 11:33N 40°43' E 014°28'0 0.0
2016-Jun-30 10:33N 40°43' E 014°28'0 0.0
2016-Jun-29 22:33N 40°43' E 014°28'0 0.0
2016-Jun-29 12:18N 40°43' E 014°28'0 0.0
2016-Jun-29 11:33N 40°43' E 014°28'0 0.0
2016-Jun-29 10:33N 40°43' E 014°28'0 0.0
2016-Jun-29 09:33N 40°43' E 014°28'6 0.2
2016-Jun-28 09:15N 40°37' E 014°29'18 9.5
2016-Jun-28 07:21N 40°34' E 014°05'  
2016-Jun-25 19:33N 40°55' E 012°58'0 0.0
2016-Jun-25 16:33N 40°55' E 012°58'0 0.0
2016-Jun-25 15:21N 40°55' E 012°58'0 0.0
2016-Jun-25 14:33N 40°55' E 012°58'0 0.0
2016-Jun-25 13:27N 40°55' E 012°58'0 0.0
2016-Jun-25 12:33N 40°55' E 012°58'0 0.0
2016-Jun-25 11:15N 40°55' E 012°58'0 0.0
2016-Jun-25 10:33N 40°55' E 012°58'0 0.3
2016-Jun-25 09:33N 40°55' E 012°58'0 0.0
2016-Jun-25 08:33N 40°55' E 012°58'15 7.0
2016-Jun-25 06:28N 40°49' E 013°16'2122.7
2016-Jun-25 05:31N 40°43' E 013°43'9 0.7
2016-Jun-24 17:22N 40°42' E 013°54'0 0.0
2016-Jun-24 16:19N 40°42' E 013°54'1317.4
2016-Jun-24 15:33N 40°34' E 014°08'8 2.0
2016-Jun-24 11:34N 40°35' E 014°19'1110.7
2016-Jun-24 10:30N 40°43' E 014°28'0 0.0
2016-Jun-24 09:30N 40°43' E 014°28'0 0.0
2016-Jun-24 08:18N 40°43' E 014°28'0 0.0
2016-Jun-24 07:24N 40°43' E 014°28'0 0.0
2016-Jun-22 20:18N 40°43' E 014°28'0 0.0
2016-Jun-22 19:24N 40°43' E 014°28'0 0.0
2016-Jun-22 18:18N 40°43' E 014°28'0 0.0
2016-Jun-22 11:12N 40°43' E 014°28'0 0.0
2016-Jun-22 10:24N 40°43' E 014°28'  
Track history (hours):
 
Tides and Currents Weather Stations Pressure Air Temp Water Temp Dewpoint Dewpoint Depression Visibility Wind Speed Wind Dir Waves Ship Positions

Destiny

Last reported at 2016-Jul-01 10:21 UTC. Time now 2016-Jul-02 03:58 UTC.
Position N 40°43' E 014°28'.

Length 37 m; draft 2.4 m.

Type: Pleasure craft. MMSI: 319864000.

Date/timePositionNaut miles runAvg speedWind from/ knotsBaromVisibWave heightAir tempDewpointWater temp
2016-Jul-01 10:21N 40°43' E 014°28'0 0.0
2016-Jul-01 09:33N 40°43' E 014°28'0 0.0
2016-Jun-30 21:33N 40°43' E 014°28'0 0.0
2016-Jun-30 20:21N 40°43' E 014°28'0 0.0
2016-Jun-30 12:33N 40°43' E 014°28'0 0.0
2016-Jun-30 11:33N 40°43' E 014°28'0 0.0
2016-Jun-30 10:33N 40°43' E 014°28'0 0.0
2016-Jun-29 22:33N 40°43' E 014°28'0 0.0
2016-Jun-29 12:18N 40°43' E 014°28'0 0.0
2016-Jun-29 11:33N 40°43' E 014°28'0 0.0
2016-Jun-29 10:33N 40°43' E 014°28'0 0.0
2016-Jun-29 09:33N 40°43' E 014°28'6 0.2
2016-Jun-28 09:15N 40°37' E 014°29'18 9.5
2016-Jun-28 07:21N 40°34' E 014°05'  
2016-Jun-25 19:33N 40°55' E 012°58'0 0.0
2016-Jun-25 16:33N 40°55' E 012°58'0 0.0
2016-Jun-25 15:21N 40°55' E 012°58'0 0.0
2016-Jun-25 14:33N 40°55' E 012°58'0 0.0
2016-Jun-25 13:27N 40°55' E 012°58'0 0.0
2016-Jun-25 12:33N 40°55' E 012°58'0 0.0
2016-Jun-25 11:15N 40°55' E 012°58'0 0.0
2016-Jun-25 10:33N 40°55' E 012°58'0 0.3
2016-Jun-25 09:33N 40°55' E 012°58'0 0.0
2016-Jun-25 08:33N 40°55' E 012°58'15 7.0
2016-Jun-25 06:28N 40°49' E 013°16'2122.7
2016-Jun-25 05:31N 40°43' E 013°43'9 0.7
2016-Jun-24 17:22N 40°42' E 013°54'0 0.0
2016-Jun-24 16:19N 40°42' E 013°54'1317.4
2016-Jun-24 15:33N 40°34' E 014°08'8 2.0
2016-Jun-24 11:34N 40°35' E 014°19'1110.7
2016-Jun-24 10:30N 40°43' E 014°28'0 0.0
2016-Jun-24 09:30N 40°43' E 014°28'0 0.0
2016-Jun-24 08:18N 40°43' E 014°28'0 0.0
2016-Jun-24 07:24N 40°43' E 014°28'0 0.0
2016-Jun-22 20:18N 40°43' E 014°28'0 0.0
2016-Jun-22 19:24N 40°43' E 014°28'0 0.0
2016-Jun-22 18:18N 40°43' E 014°28'0 0.0
2016-Jun-22 11:12N 40°43' E 014°28'0 0.0
2016-Jun-22 10:24N 40°43' E 014°28'  

Dump ship's entire track history